Time;durP1;ratioP1;P1;durP2;ratioP2;P2;SDS_P1;SDS_P2;PMS_P1;PMS_P2;Temp;Humidity;BMP_temperature;BMP_pressure;BME280_temperature;BME280_humidity;BME280_pressure;Samples;Min_cycle;Max_cycle;Signal;HPM_P1;HPM_P2
2024/01/04 00:01:11;;;;;;;7.50;2.23;;;6.20;1.00;;;;;;5020257;28;20446;-51
2024/01/04 00:03:37;;;;;;;4.50;1.70;;;6.20;1.00;;;;;;5014698;28;20195;-51
2024/01/04 00:06:02;;;;;;;8.50;1.77;;;6.20;1.00;;;;;;5012862;28;20434;-51
2024/01/04 00:08:28;;;;;;;2.70;1.50;;;6.10;1.00;;;;;;5017876;28;20206;-50
2024/01/04 00:10:53;;;;;;;5.13;1.37;;;5.90;1.00;;;;;;5016446;28;20195;-51
2024/01/04 00:13:19;;;;;;;4.57;1.63;;;5.90;1.00;;;;;;5019065;28;20188;-51
2024/01/04 00:15:44;;;;;;;6.73;1.70;;;5.90;1.00;;;;;;5022281;28;20216;-51
2024/01/04 00:18:10;;;;;;;2.17;1.30;;;5.80;1.00;;;;;;5025576;28;20183;-51
2024/01/04 00:20:36;;;;;;;2.67;1.10;;;5.80;1.00;;;;;;5021228;28;23557;-51
2024/01/04 00:23:01;;;;;;;2.87;1.10;;;5.80;1.00;;;;;;5017834;28;20188;-52
2024/01/04 00:25:27;;;;;;;2.80;1.30;;;5.70;1.00;;;;;;5014188;28;20179;-51
2024/01/04 00:27:52;;;;;;;1.50;1.10;;;5.70;1.00;;;;;;5014171;28;20184;-52
2024/01/04 00:30:18;;;;;;;3.47;1.10;;;5.60;1.00;;;;;;5016762;28;20196;-51
2024/01/04 00:32:44;;;;;;;2.60;1.40;;;5.60;1.00;;;;;;5019604;28;20184;-52
2024/01/04 00:35:09;;;;;;;3.70;1.30;;;5.60;1.00;;;;;;5019230;28;20199;-51
2024/01/04 00:37:35;;;;;;;6.10;1.70;;;5.60;1.00;;;;;;5020143;28;20267;-52
2024/01/04 00:40:01;;;;;;;3.30;1.23;;;5.60;99.90;;;;;;5014840;28;20184;-51
2024/01/04 00:42:26;;;;;;;8.63;1.83;;;5.60;99.90;;;;;;5026293;28;20188;-51
2024/01/04 00:44:52;;;;;;;6.30;1.30;;;5.50;25.40;;;;;;5032224;28;20592;-51
2024/01/04 00:47:17;;;;;;;4.63;1.10;;;5.50;70.10;;;;;;5025536;28;20202;-51
2024/01/04 00:49:43;;;;;;;2.17;1.00;;;5.50;1.00;;;;;;5014520;28;20183;-52
2024/01/04 00:52:08;;;;;;;5.43;1.17;;;5.50;1.00;;;;;;5013861;28;20176;-51
2024/01/04 00:54:34;;;;;;;2.20;1.30;;;5.50;1.00;;;;;;5025625;28;20191;-52
2024/01/04 00:56:59;;;;;;;3.70;0.80;;;5.50;53.60;;;;;;5017056;28;20219;-51
2024/01/04 00:59:25;;;;;;;5.17;1.00;;;5.60;99.90;;;;;;5013353;28;20192;-52
2024/01/04 01:01:51;;;;;;;3.33;0.80;;;5.50;1.00;;;;;;5017582;28;20184;-51
2024/01/04 01:04:17;;;;;;;3.10;1.00;;;5.50;3.50;;;;;;5012479;28;20795;-51
2024/01/04 01:06:42;;;;;;;1.00;0.90;;;5.60;1.00;;;;;;5016024;28;20271;-51
2024/01/04 01:09:08;;;;;;;1.10;0.70;;;5.50;99.90;;;;;;5013648;28;20188;-52
2024/01/04 01:11:33;;;;;;;0.83;0.67;;;5.50;99.90;;;;;;5024634;28;20333;-51
2024/01/04 01:13:59;;;;;;;0.80;0.70;;;5.50;1.00;;;;;;5018093;28;20176;-52
2024/01/04 01:16:25;;;;;;;1.80;0.70;;;5.50;1.00;;;;;;5015969;28;20749;-52
2024/01/04 01:18:51;;;;;;;0.90;0.70;;;5.50;63.80;;;;;;5015321;28;20196;-51
2024/01/04 01:21:16;;;;;;;1.33;0.67;;;5.50;99.90;;;;;;5015476;28;20497;-51
2024/01/04 01:23:42;;;;;;;1.13;0.60;;;5.50;2.20;;;;;;5017584;28;20267;-52
2024/01/04 01:26:07;;;;;;;0.97;0.80;;;5.50;99.90;;;;;;5018039;28;20183;-52
2024/01/04 01:28:33;;;;;;;3.97;1.03;;;5.50;99.90;;;;;;5014179;28;20233;-51
2024/01/04 01:31:02;;;;;;;1.60;0.77;;;5.50;1.00;;;;;;5016044;28;20194;-52
2024/01/04 01:33:27;;;;;;;1.83;0.80;;;5.50;71.70;;;;;;5017944;28;20726;-52
2024/01/04 01:35:53;;;;;;;2.83;1.00;;;5.50;1.00;;;;;;5014746;28;20475;-51
2024/01/04 01:38:18;;;;;;;2.30;0.70;;;5.40;1.00;;;;;;5018634;28;20212;-51
2024/01/04 01:40:44;;;;;;;1.73;0.87;;;5.50;99.90;;;;;;5016552;28;20195;-51
2024/01/04 01:43:11;;;;;;;3.33;0.80;;;5.50;1.00;;;;;;5019949;28;20236;-51
2024/01/04 01:45:37;;;;;;;2.80;0.90;;;5.40;99.90;;;;;;5014884;28;20303;-52
2024/01/04 01:48:04;;;;;;;2.10;0.93;;;5.40;1.00;;;;;;5021979;28;21017;-52
2024/01/04 01:50:31;;;;;;;7.23;0.90;;;5.40;99.50;;;;;;5023418;28;20187;-51
2024/01/04 01:52:57;;;;;;;4.10;0.70;;;5.30;99.90;;;;;;5018724;28;20489;-51
2024/01/04 01:55:25;;;;;;;4.00;1.30;;;5.20;1.00;;;;;;5016883;28;20508;-51
2024/01/04 01:57:51;;;;;;;1.77;0.90;;;5.30;99.90;;;;;;5022131;28;20450;-52
2024/01/04 02:00:18;;;;;;;3.93;1.20;;;5.30;99.90;;;;;;5016478;28;20492;-52
2024/01/04 02:02:48;;;;;;;2.83;1.00;;;5.30;3.90;;;;;;5020247;28;20482;-51
2024/01/04 02:05:14;;;;;;;1.70;0.90;;;5.20;5.00;;;;;;5022250;28;20518;-52
2024/01/04 02:07:40;;;;;;;8.23;1.07;;;5.20;1.00;;;;;;5019320;28;20486;-51
2024/01/04 02:10:06;;;;;;;1.90;0.80;;;5.20;99.90;;;;;;5015363;28;20450;-52
2024/01/04 02:12:32;;;;;;;1.00;0.90;;;5.20;99.90;;;;;;5019324;28;20187;-51
2024/01/04 02:14:58;;;;;;;3.70;1.10;;;5.10;99.90;;;;;;5019415;28;20522;-51
2024/01/04 02:17:25;;;;;;;2.60;0.90;;;5.10;99.90;;;;;;5017547;28;20215;-52
2024/01/04 02:19:51;;;;;;;4.03;0.90;;;5.10;1.00;;;;;;5021808;28;20188;-52
2024/01/04 02:22:17;;;;;;;7.37;0.70;;;5.10;1.00;;;;;;5022971;28;20965;-53
2024/01/04 02:24:43;;;;;;;2.50;1.00;;;5.00;21.30;;;;;;5028194;28;20195;-52
2024/01/04 02:27:09;;;;;;;2.50;1.00;;;5.00;99.90;;;;;;5020421;28;20203;-52
2024/01/04 02:29:35;;;;;;;3.60;1.10;;;4.90;1.00;;;;;;5024643;28;20942;-52
2024/01/04 02:32:00;;;;;;;3.60;1.20;;;4.80;99.90;;;;;;5021932;28;20945;-53
2024/01/04 02:34:26;;;;;;;3.10;1.20;;;4.80;99.90;;;;;;5023493;28;20647;-53
2024/01/04 02:36:52;;;;;;;2.30;1.20;;;4.70;1.00;;;;;;5014966;28;20293;-52
2024/01/04 02:39:17;;;;;;;5.77;1.27;;;4.70;1.00;;;;;;5021524;28;20186;-52
2024/01/04 02:41:43;;;;;;;2.80;1.20;;;4.70;99.90;;;;;;5019827;28;20184;-52
2024/01/04 02:44:08;;;;;;;4.40;1.10;;;4.70;99.90;;;;;;5020749;28;20179;-52
2024/01/04 02:46:34;;;;;;;4.53;1.23;;;4.70;99.90;;;;;;5019083;28;20188;-52
2024/01/04 02:49:00;;;;;;;2.17;1.20;;;4.70;99.90;;;;;;5021704;28;20188;-52
2024/01/04 02:51:25;;;;;;;3.17;1.40;;;4.70;99.90;;;;;;5015661;28;20178;-52
2024/01/04 02:53:51;;;;;;;2.23;1.40;;;4.70;1.00;;;;;;5020888;28;20201;-52
2024/01/04 02:56:16;;;;;;;3.00;1.10;;;4.60;99.90;;;;;;5027490;28;20222;-52
2024/01/04 02:58:45;;;;;;;1.23;1.10;;;4.60;1.00;;;;;;5019469;28;20194;-54
2024/01/04 03:01:11;;;;;;;6.57;1.70;;;4.50;1.00;;;;;;5023621;28;20282;-52
2024/01/04 03:03:36;;;;;;;3.20;1.40;;;4.50;1.00;;;;;;5020865;28;20520;-52
2024/01/04 03:06:02;;;;;;;2.23;1.20;;;4.50;99.90;;;;;;5025417;28;20437;-51
2024/01/04 03:08:27;;;;;;;6.07;1.20;;;4.50;38.10;;;;;;5027694;28;20218;-53
2024/01/04 03:10:53;;;;;;;3.00;1.23;;;4.50;1.00;;;;;;5021966;28;20189;-51
2024/01/04 03:13:19;;;;;;;6.30;1.87;;;4.50;1.00;;;;;;5023234;28;20191;-52
2024/01/04 03:15:44;;;;;;;1.13;1.00;;;4.50;99.90;;;;;;5017811;28;20563;-52
2024/01/04 03:18:10;;;;;;;2.30;1.10;;;4.50;1.00;;;;;;5020596;28;20184;-52
2024/01/04 03:20:35;;;;;;;1.47;0.97;;;4.40;99.90;;;;;;5015128;28;20192;-52
2024/01/04 03:23:01;;;;;;;3.13;1.10;;;4.30;99.90;;;;;;5017664;28;20191;-52
2024/01/04 03:25:26;;;;;;;2.60;0.90;;;4.30;99.90;;;;;;5016179;28;20187;-52
2024/01/04 03:27:52;;;;;;;1.67;0.80;;;4.30;99.90;;;;;;5018864;28;20191;-52
2024/01/04 03:30:19;;;;;;;1.73;1.07;;;4.30;11.40;;;;;;5018000;28;20184;-52
2024/01/04 03:32:44;;;;;;;1.20;1.10;;;4.30;99.90;;;;;;5014541;28;20275;-52
2024/01/04 03:35:10;;;;;;;1.40;1.10;;;4.20;99.90;;;;;;5021702;28;20532;-51
2024/01/04 03:37:36;;;;;;;2.60;1.20;;;4.20;99.90;;;;;;5017175;28;20188;-51
2024/01/04 03:40:02;;;;;;;4.30;1.50;;;4.20;99.90;;;;;;5019737;28;20523;-51
2024/01/04 03:42:27;;;;;;;2.63;1.43;;;4.10;99.90;;;;;;5021199;28;20195;-51
2024/01/04 03:44:53;;;;;;;1.97;1.30;;;4.10;99.90;;;;;;5019346;28;20789;-51
2024/01/04 03:47:19;;;;;;;2.03;1.00;;;4.00;99.90;;;;;;5025372;28;20274;-51
2024/01/04 03:49:44;;;;;;;1.17;0.90;;;4.00;1.00;;;;;;5025288;28;20458;-51
2024/01/04 03:52:10;;;;;;;1.10;1.00;;;4.00;1.00;;;;;;5026600;28;20438;-51
2024/01/04 03:54:36;;;;;;;1.43;1.20;;;4.00;1.00;;;;;;5017379;28;20275;-52
2024/01/04 03:57:01;;;;;;;4.80;2.13;;;3.90;68.40;;;;;;5017862;28;20280;-51
2024/01/04 03:59:27;;;;;;;2.00;1.00;;;3.80;99.90;;;;;;5015324;28;20184;-52
2024/01/04 04:01:52;;;;;;;2.70;1.30;;;3.70;1.00;;;;;;5026760;28;20180;-51
2024/01/04 04:04:18;;;;;;;1.60;1.40;;;3.70;70.60;;;;;;5019977;28;20237;-51
2024/01/04 04:06:43;;;;;;;1.83;1.30;;;3.70;1.00;;;;;;5015529;28;20238;-52
2024/01/04 04:09:09;;;;;;;1.87;1.40;;;3.50;1.00;;;;;;5020169;28;20194;-52
2024/01/04 04:11:35;;;;;;;1.53;1.20;;;3.50;1.00;;;;;;5016507;28;20188;-51
2024/01/04 04:14:01;;;;;;;1.57;1.40;;;3.40;60.70;;;;;;5015570;28;20713;-52
2024/01/04 04:16:26;;;;;;;4.93;1.60;;;3.40;99.90;;;;;;5015127;28;20573;-51
2024/01/04 04:18:52;;;;;;;2.90;1.70;;;3.30;99.90;;;;;;5020639;28;20188;-52
2024/01/04 04:21:22;;;;;;;2.53;1.90;;;3.30;99.90;;;;;;5019040;28;20226;-52
2024/01/04 04:23:51;;;;;;;1.67;1.47;;;3.10;1.00;;;;;;5024096;28;20309;-52
2024/01/04 04:26:21;;;;;;;1.70;1.60;;;3.20;1.00;;;;;;5026972;28;20442;-51
2024/01/04 04:28:48;;;;;;;6.63;1.90;;;3.20;1.00;;;;;;5026543;28;20441;-52
2024/01/04 04:31:17;;;;;;;1.50;1.40;;;3.20;1.00;;;;;;5022449;28;20521;-52
2024/01/04 04:33:47;;;;;;;2.57;1.73;;;3.10;1.00;;;;;;5020018;28;20452;-52
2024/01/04 04:36:13;;;;;;;2.43;1.90;;;3.10;1.00;;;;;;5023559;28;20466;-52
2024/01/04 04:38:40;;;;;;;2.83;1.60;;;3.10;99.90;;;;;;5020793;28;20460;-52
2024/01/04 04:41:07;;;;;;;2.00;1.67;;;3.10;1.00;;;;;;5016614;28;20437;-51
2024/01/04 04:43:33;;;;;;;1.83;1.40;;;3.00;99.90;;;;;;5017969;28;20441;-52
2024/01/04 04:45:59;;;;;;;1.43;1.33;;;2.90;1.00;;;;;;5013130;28;20811;-52
2024/01/04 04:48:25;;;;;;;1.60;1.50;;;2.80;1.00;;;;;;5014291;28;20512;-52
2024/01/04 04:50:53;;;;;;;2.90;1.80;;;2.80;1.00;;;;;;5014784;28;20532;-52
2024/01/04 04:53:18;;;;;;;1.80;1.70;;;2.80;1.00;;;;;;5020163;28;20179;-52
2024/01/04 04:55:44;;;;;;;1.60;1.50;;;2.70;1.00;;;;;;5017939;28;20479;-52
2024/01/04 04:58:10;;;;;;;5.97;1.67;;;2.60;1.00;;;;;;5016690;28;20190;-52
2024/01/04 05:00:36;;;;;;;1.87;1.70;;;2.60;4.60;;;;;;5023697;28;20272;-52
2024/01/04 05:03:02;;;;;;;1.83;1.67;;;2.50;99.90;;;;;;5020367;28;20190;-52
2024/01/04 05:05:28;;;;;;;2.60;1.70;;;2.50;1.00;;;;;;5022967;28;20441;-52
2024/01/04 05:07:54;;;;;;;5.13;2.10;;;2.50;99.90;;;;;;5021842;28;20478;-52
2024/01/04 05:10:20;;;;;;;2.93;1.80;;;2.50;1.00;;;;;;5023890;28;20183;-52
2024/01/04 05:12:45;;;;;;;3.97;2.10;;;2.40;1.00;;;;;;5020138;28;20447;-52
2024/01/04 05:15:11;;;;;;;3.00;2.10;;;2.30;1.00;;;;;;5015919;28;20629;-52
2024/01/04 05:17:36;;;;;;;3.33;2.40;;;2.20;99.90;;;;;;5015124;28;20286;-52
2024/01/04 05:20:04;;;;;;;3.43;3.13;;;2.20;99.90;;;;;;5013117;28;20571;-52
2024/01/04 05:22:30;;;;;;;5.40;3.30;;;2.20;99.90;;;;;;5018365;28;20641;-52
2024/01/04 05:24:55;;;;;;;6.40;4.07;;;2.10;88.10;;;;;;5016782;28;20872;-52
2024/01/04 05:27:21;;;;;;;6.13;4.47;;;2.10;1.00;;;;;;5020468;28;20956;-52
2024/01/04 05:29:47;;;;;;;5.97;4.50;;;2.00;99.90;;;;;;5017576;28;20192;-52
2024/01/04 05:32:12;;;;;;;8.27;4.80;;;2.00;1.00;;;;;;5015295;28;20195;-52
2024/01/04 05:34:38;;;;;;;7.10;5.17;;;2.00;1.00;;;;;;5017135;28;20559;-52
2024/01/04 05:37:03;;;;;;;6.63;4.77;;;1.90;99.90;;;;;;5015840;28;20218;-52
2024/01/04 05:39:29;;;;;;;6.80;4.93;;;1.90;1.00;;;;;;5022040;28;20270;-52
2024/01/04 05:41:55;;;;;;;5.73;4.33;;;1.90;11.90;;;;;;5021125;28;20273;-52
2024/01/04 05:44:21;;;;;;;9.23;4.43;;;1.90;99.90;;;;;;5018746;28;20186;-52
2024/01/04 05:46:46;;;;;;;7.50;4.53;;;1.80;99.90;;;;;;5016832;28;20437;-52
2024/01/04 05:49:12;;;;;;;7.27;4.83;;;1.80;99.90;;;;;;5017718;28;20188;-52
2024/01/04 05:51:37;;;;;;;8.17;5.17;;;1.80;1.00;;;;;;5025646;28;20647;-52
2024/01/04 05:54:03;;;;;;;6.47;4.97;;;1.80;1.00;;;;;;5024574;28;20631;-52
2024/01/04 05:56:29;;;;;;;7.90;5.13;;;1.70;1.00;;;;;;5020645;28;20357;-51
2024/01/04 05:58:55;;;;;;;6.23;5.00;;;1.70;1.00;;;;;;5020760;28;20459;-52
2024/01/04 06:01:21;;;;;;;6.50;4.87;;;1.70;1.00;;;;;;5017930;28;20180;-52
2024/01/04 06:03:46;;;;;;;6.80;5.13;;;1.70;1.00;;;;;;5019192;28;20184;-52
2024/01/04 06:06:14;;;;;;;8.27;5.27;;;1.70;1.00;;;;;;5017644;28;20189;-52
2024/01/04 06:08:43;;;;;;;5.93;4.70;;;1.70;1.00;;;;;;5018450;28;20186;-52
2024/01/04 06:11:11;;;;;;;5.87;5.27;;;1.70;1.00;;;;;;5016548;28;20834;-53
2024/01/04 06:13:37;;;;;;;7.70;4.60;;;1.70;1.00;;;;;;5012108;28;20957;-52
2024/01/04 06:16:07;;;;;;;5.73;4.97;;;1.70;1.00;;;;;;5015301;28;20482;-52
2024/01/04 06:18:33;;;;;;;6.53;4.27;;;1.60;1.00;;;;;;5017029;28;20716;-52
2024/01/04 06:20:58;;;;;;;5.57;4.27;;;1.60;1.00;;;;;;5015614;28;20443;-51
2024/01/04 06:23:24;;;;;;;4.90;3.60;;;1.60;1.00;;;;;;5011944;28;20457;-52
2024/01/04 06:25:50;;;;;;;5.13;4.30;;;1.50;1.00;;;;;;5015530;28;20214;-51
2024/01/04 06:28:16;;;;;;;3.87;3.50;;;1.50;1.00;;;;;;5016741;28;20441;-52
2024/01/04 06:30:41;;;;;;;4.00;3.33;;;1.50;1.00;;;;;;5016146;28;20641;-52
2024/01/04 06:33:07;;;;;;;3.67;3.37;;;1.50;1.00;;;;;;5014877;28;20185;-52
2024/01/04 06:35:32;;;;;;;4.60;3.20;;;1.50;1.00;;;;;;5020904;28;20190;-51
2024/01/04 06:37:58;;;;;;;3.60;3.30;;;1.50;1.00;;;;;;5016891;28;20192;-52
2024/01/04 06:40:24;;;;;;;5.70;3.47;;;1.50;1.00;;;;;;5019630;28;20184;-51
2024/01/04 06:42:55;;;;;;;3.70;3.40;;;1.50;1.00;;;;;;5015058;28;20236;-51
2024/01/04 06:45:23;;;;;;;4.63;3.13;;;1.50;1.00;;;;;;5028078;28;20534;-51
2024/01/04 06:47:49;;;;;;;5.90;3.37;;;1.50;1.00;;;;;;5033474;28;20453;-53
2024/01/04 06:50:15;;;;;;;4.20;3.80;;;1.50;1.00;;;;;;5036059;28;20449;-51
2024/01/04 06:52:40;;;;;;;5.27;3.33;;;1.40;1.00;;;;;;5036645;28;20187;-51
2024/01/04 06:55:06;;;;;;;5.20;3.43;;;1.40;1.00;;;;;;5034804;28;20633;-51
2024/01/04 06:57:32;;;;;;;3.00;2.77;;;1.40;1.00;;;;;;5035729;28;20782;-51
2024/01/04 06:59:57;;;;;;;3.90;3.50;;;1.40;1.00;;;;;;5036002;28;20225;-52
2024/01/04 07:02:23;;;;;;;7.10;3.60;;;1.30;1.00;;;;;;5051522;28;20195;-51
2024/01/04 07:04:48;;;;;;;7.40;3.60;;;1.30;1.00;;;;;;5056915;28;20190;-51
2024/01/04 07:07:14;;;;;;;3.37;2.90;;;1.30;1.00;;;;;;5045750;28;20690;-51
2024/01/04 07:09:39;;;;;;;3.67;2.87;;;1.30;1.00;;;;;;5034079;28;20689;-50
2024/01/04 07:12:06;;;;;;;3.30;3.00;;;1.30;1.00;;;;;;5036425;28;20620;-51
2024/01/04 07:14:32;;;;;;;3.40;3.10;;;1.20;1.00;;;;;;5035760;28;20180;-51
2024/01/04 07:16:57;;;;;;;4.50;2.93;;;1.20;1.00;;;;;;5033949;28;21011;-50
2024/01/04 07:19:23;;;;;;;3.37;2.60;;;1.20;1.00;;;;;;5034988;28;20183;-51
2024/01/04 07:21:48;;;;;;;2.73;2.53;;;1.10;1.00;;;;;;5036184;28;20262;-51
2024/01/04 07:24:15;;;;;;;3.60;2.73;;;1.10;1.00;;;;;;5035559;28;20179;-51
2024/01/04 07:26:41;;;;;;;4.67;3.40;;;1.00;1.00;;;;;;5032862;28;20190;-50
2024/01/04 07:29:07;;;;;;;5.83;3.43;;;1.00;1.00;;;;;;5035078;28;20444;-51
2024/01/04 07:31:32;;;;;;;3.10;2.83;;;1.00;1.00;;;;;;5035131;28;20233;-51
2024/01/04 07:34:00;;;;;;;5.07;3.40;;;1.00;1.00;;;;;;5033862;28;20548;-51
2024/01/04 07:36:26;;;;;;;4.07;3.00;;;1.00;4.30;;;;;;5028825;28;20215;-50
2024/01/04 07:38:52;;;;;;;5.60;3.17;;;0.90;13.90;;;;;;5034405;28;20933;-51
2024/01/04 07:41:17;;;;;;;7.73;3.10;;;1.00;29.90;;;;;;5034719;28;20193;-51
2024/01/04 07:43:43;;;;;;;3.43;3.00;;;1.00;42.90;;;;;;5031794;28;20180;-51
2024/01/04 07:46:09;;;;;;;4.00;3.00;;;1.00;48.10;;;;;;5032468;28;20187;-51
2024/01/04 07:48:34;;;;;;;4.13;3.47;;;1.00;54.60;;;;;;5035748;28;20643;-51
2024/01/04 07:51:00;;;;;;;7.30;3.50;;;1.10;67.20;;;;;;5033406;28;20265;-51
2024/01/04 07:53:26;;;;;;;6.73;3.20;;;1.10;49.00;;;;;;5036107;28;20183;-51
2024/01/04 07:55:51;;;;;;;7.10;4.03;;;1.10;31.40;;;;;;5035385;28;20205;-52
2024/01/04 07:58:17;;;;;;;3.37;3.07;;;1.10;37.50;;;;;;5032139;28;20187;-51
2024/01/04 08:00:42;;;;;;;3.97;3.10;;;1.10;40.20;;;;;;5032017;28;20250;-51
2024/01/04 08:03:08;;;;;;;6.50;3.20;;;1.10;18.40;;;;;;5034580;28;20643;-51
2024/01/04 08:05:33;;;;;;;3.60;3.27;;;1.10;1.00;;;;;;5034730;28;20678;-51
2024/01/04 08:07:59;;;;;;;13.10;3.10;;;1.10;1.00;;;;;;5035387;28;20238;-51
2024/01/04 08:10:24;;;;;;;3.30;3.00;;;1.10;1.00;;;;;;5035208;28;20278;-51
2024/01/04 08:12:50;;;;;;;7.73;2.70;;;1.10;1.00;;;;;;5035814;28;20219;-52
2024/01/04 08:15:15;;;;;;;3.63;2.87;;;1.10;1.00;;;;;;5035184;28;20694;-51
2024/01/04 08:17:41;;;;;;;3.77;3.27;;;1.10;1.00;;;;;;5033819;28;20675;-52
2024/01/04 08:20:07;;;;;;;5.03;3.30;;;1.10;1.00;;;;;;5034173;28;20545;-52
2024/01/04 08:22:32;;;;;;;3.83;3.00;;;1.00;1.00;;;;;;5035013;28;20171;-51
2024/01/04 08:25:00;;;;;;;3.50;3.00;;;1.10;1.00;;;;;;5035586;28;20231;-51
2024/01/04 08:27:26;;;;;;;6.90;2.90;;;1.20;1.00;;;;;;5035342;28;20450;-52
2024/01/04 08:29:51;;;;;;;7.00;2.80;;;1.20;1.00;;;;;;5035598;28;20179;-51
2024/01/04 08:32:17;;;;;;;2.90;2.67;;;1.20;1.00;;;;;;5033451;28;20214;-50
2024/01/04 08:34:43;;;;;;;3.27;2.80;;;1.20;1.00;;;;;;5055406;28;20183;-50
2024/01/04 08:37:09;;;;;;;3.37;2.83;;;1.10;1.00;;;;;;5046611;28;20217;-51
2024/01/04 08:39:35;;;;;;;2.63;2.43;;;1.10;1.00;;;;;;5032195;28;20459;-52
2024/01/04 08:42:01;;;;;;;3.00;2.50;;;1.20;1.00;;;;;;5033721;28;20524;-51
2024/01/04 08:44:26;;;;;;;3.40;2.80;;;1.10;1.00;;;;;;5031455;28;20636;-52
2024/01/04 08:46:53;;;;;;;3.10;2.80;;;1.20;1.00;;;;;;5034043;28;20206;-51
2024/01/04 08:49:18;;;;;;;4.87;2.80;;;1.20;1.00;;;;;;5032698;28;20232;-51
2024/01/04 08:51:44;;;;;;;10.43;3.30;;;1.20;1.00;;;;;;5033316;28;20437;-52
2024/01/04 08:54:10;;;;;;;7.50;3.47;;;1.20;1.00;;;;;;5032358;28;20191;-51
2024/01/04 08:56:36;;;;;;;4.23;2.83;;;1.20;1.00;;;;;;5032657;28;20222;-51
2024/01/04 08:59:02;;;;;;;4.07;2.77;;;1.20;1.00;;;;;;5029964;28;20450;-51
2024/01/04 09:01:29;;;;;;;4.37;2.50;;;1.20;1.00;;;;;;5034643;28;20198;-51
2024/01/04 09:03:55;;;;;;;3.47;2.93;;;1.30;1.00;;;;;;5032489;28;20443;-51
2024/01/04 09:06:21;;;;;;;3.70;2.47;;;1.20;1.00;;;;;;5037676;28;20489;-51
2024/01/04 09:08:48;;;;;;;4.77;2.77;;;1.30;1.00;;;;;;5038656;28;20964;-51
2024/01/04 09:11:16;;;;;;;4.83;2.60;;;1.30;1.00;;;;;;5032953;28;20596;-51
2024/01/04 09:13:44;;;;;;;3.90;2.37;;;1.20;1.00;;;;;;5043301;28;20757;-50
2024/01/04 09:16:10;;;;;;;4.33;2.73;;;1.30;1.00;;;;;;5045005;28;20956;-51
2024/01/04 09:18:35;;;;;;;3.80;2.60;;;1.30;1.00;;;;;;5038607;28;20416;-51
2024/01/04 09:21:01;;;;;;;2.83;2.60;;;1.20;99.90;;;;;;5036654;28;20189;-51
2024/01/04 09:23:27;;;;;;;3.17;2.57;;;1.20;99.90;;;;;;5034632;28;20210;-50
2024/01/04 09:25:52;;;;;;;3.17;2.63;;;1.20;1.00;;;;;;5036272;28;20954;-50
2024/01/04 09:28:18;;;;;;;3.43;2.30;;;1.20;99.90;;;;;;5033201;28;20651;-51
2024/01/04 09:30:44;;;;;;;6.20;2.83;;;1.20;1.00;;;;;;5046878;28;20301;-51
2024/01/04 09:33:11;;;;;;;3.10;2.60;;;1.20;99.90;;;;;;5040692;28;20459;-51
2024/01/04 09:35:37;;;;;;;3.10;2.70;;;1.20;99.90;;;;;;5048399;28;20464;-52
2024/01/04 09:38:03;;;;;;;2.77;2.50;;;1.20;99.90;;;;;;5038721;28;20821;-51
2024/01/04 09:40:29;;;;;;;4.03;2.47;;;1.20;99.90;;;;;;5041782;28;20263;-52
2024/01/04 09:42:55;;;;;;;3.33;2.60;;;1.20;99.90;;;;;;5035243;28;20839;-51
2024/01/04 09:45:22;;;;;;;2.77;2.57;;;1.30;99.90;;;;;;5037871;28;20425;-51
2024/01/04 09:47:53;;;;;;;6.53;2.57;;;1.30;99.90;;;;;;5045783;28;20466;-51
2024/01/04 09:50:21;;;;;;;5.13;3.00;;;1.30;99.90;;;;;;5027720;28;20475;-50
2024/01/04 09:52:50;;;;;;;5.07;2.40;;;1.40;99.90;;;;;;5038404;28;20821;-50
2024/01/04 09:55:20;;;;;;;5.03;2.90;;;1.40;99.90;;;;;;5037704;28;20547;-50
2024/01/04 09:57:46;;;;;;;5.53;2.70;;;1.40;1.00;;;;;;5041535;28;20857;-50
2024/01/04 10:00:12;;;;;;;4.87;2.40;;;1.40;67.70;;;;;;5026835;28;20429;-51
2024/01/04 10:02:44;;;;;;;3.17;2.23;;;1.40;1.00;;;;;;5027584;28;20550;-50
2024/01/04 10:05:17;;;;;;;4.70;2.40;;;1.40;1.00;;;;;;5041124;28;20446;-51
2024/01/04 10:08:12;;;;;;;5.70;2.70;;;1.40;1.00;;;;;;5034836;28;20812;-50
2024/01/04 10:10:40;;;;;;;5.70;2.57;;;1.50;99.90;;;;;;5038494;28;20533;-51
2024/01/04 10:13:08;;;;;;;3.03;2.40;;;1.40;33.70;;;;;;5033698;28;20423;-53
2024/01/04 10:15:36;;;;;;;8.60;2.40;;;1.40;1.00;;;;;;5033286;28;20481;-52
2024/01/04 10:18:03;;;;;;;2.70;2.50;;;1.50;88.20;;;;;;5032749;28;20453;-53
2024/01/04 10:20:29;;;;;;;3.00;1.97;;;1.40;1.00;;;;;;5036290;28;20580;-53
2024/01/04 10:22:57;;;;;;;2.10;1.90;;;1.40;1.00;;;;;;5037629;28;20857;-53
2024/01/04 10:25:23;;;;;;;2.40;1.93;;;1.40;1.00;;;;;;5037683;28;20623;-52
2024/01/04 10:27:59;;;;;;;2.23;2.07;;;1.40;1.00;;;;;;5037574;28;20433;-52
2024/01/04 10:30:26;;;;;;;2.40;2.20;;;1.50;1.00;;;;;;5033935;28;20784;-54
2024/01/04 10:32:51;;;;;;;2.20;2.00;;;1.50;99.90;;;;;;5035760;28;20455;-54
2024/01/04 10:35:27;;;;;;;2.17;1.90;;;1.50;1.00;;;;;;5039843;28;20429;-52
2024/01/04 10:38:00;;;;;;;2.20;2.00;;;1.70;1.00;;;;;;5045067;28;20190;-54
2024/01/04 10:40:26;;;;;;;1.80;1.70;;;1.70;99.90;;;;;;5045077;28;20426;-53
2024/01/04 10:42:54;;;;;;;5.17;2.37;;;1.60;99.90;;;;;;5055840;28;20424;-54
2024/01/04 10:45:32;;;;;;;1.73;1.63;;;1.60;5.90;;;;;;5031890;28;20208;-55
2024/01/04 10:47:58;;;;;;;2.63;1.77;;;1.70;99.90;;;;;;5028621;28;20576;-54
2024/01/04 10:50:27;;;;;;;3.77;1.90;;;1.60;99.90;;;;;;5042435;28;20513;-52
2024/01/04 10:52:56;;;;;;;2.93;2.07;;;1.60;99.90;;;;;;5028831;28;20644;-54
2024/01/04 10:55:24;;;;;;;1.73;1.60;;;1.60;99.90;;;;;;5025007;28;20421;-53
2024/01/04 10:57:50;;;;;;;1.60;1.50;;;1.60;99.90;;;;;;5034966;28;20487;-53
2024/01/04 11:00:17;;;;;;;1.87;1.37;;;1.50;99.90;;;;;;5046523;28;20425;-52
2024/01/04 11:02:44;;;;;;;3.57;1.80;;;1.50;99.90;;;;;;5039535;28;20426;-53
2024/01/04 11:05:10;;;;;;;1.77;1.60;;;1.40;99.90;;;;;;5039222;28;20787;-53
2024/01/04 11:07:40;;;;;;;2.88;1.60;;;1.40;1.00;;;;;;5049158;28;20374;-55
2024/01/04 11:10:06;;;;;;;1.97;1.60;;;1.50;54.60;;;;;;5042659;28;20199;-55
2024/01/04 11:12:32;;;;;;;2.83;1.80;;;1.50;1.00;;;;;;5027217;28;20446;-53
2024/01/04 11:14:58;;;;;;;1.90;1.70;;;1.50;99.90;;;;;;5034385;28;20504;-53
2024/01/04 11:17:48;;;;;;;3.17;2.10;;;1.50;1.00;;;;;;5034640;28;20491;-53
2024/01/04 11:20:51;;;;;;;1.83;1.67;;;1.60;99.90;;;;;;5034365;28;20502;-53
2024/01/04 11:23:55;;;;;;;1.40;1.30;;;1.70;99.90;;;;;;5033561;28;20524;-54
2024/01/04 11:26:27;;;;;;;2.77;2.03;;;1.70;1.00;;;;;;5033191;28;20462;-53
2024/01/04 11:28:55;;;;;;;2.33;1.40;;;1.70;1.00;;;;;;5034098;28;20429;-53
2024/01/04 11:31:24;;;;;;;2.20;1.60;;;1.70;99.90;;;;;;5034255;28;20429;-53
2024/01/04 11:33:50;;;;;;;4.40;1.43;;;1.70;99.90;;;;;;5034309;28;20477;-53
2024/01/04 11:36:21;;;;;;;1.73;1.60;;;1.70;1.00;;;;;;5031031;28;20462;-53
2024/01/04 11:38:47;;;;;;;2.70;1.73;;;1.60;99.90;;;;;;5034141;28;20269;-54
2024/01/04 11:41:13;;;;;;;3.47;2.20;;;1.60;1.00;;;;;;5037525;28;20442;-54
2024/01/04 11:43:40;;;;;;;8.30;1.93;;;1.60;99.90;;;;;;5039436;28;20422;-54
2024/01/04 11:46:23;;;;;;;2.50;1.30;;;1.60;1.00;;;;;;5042908;28;20249;-55
2024/01/04 11:49:05;;;;;;;1.40;1.30;;;1.70;99.90;;;;;;5034548;28;20430;-54
2024/01/04 11:51:33;;;;;;;2.07;1.60;;;1.70;99.90;;;;;;5054761;28;20417;-54
2024/01/04 11:53:59;;;;;;;3.27;1.90;;;1.70;99.90;;;;;;5037164;28;20487;-55
2024/01/04 11:56:25;;;;;;;4.73;1.80;;;1.80;1.00;;;;;;5030520;28;20474;-54
2024/01/04 11:58:51;;;;;;;2.20;2.00;;;1.80;1.00;;;;;;5049686;28;20223;-54
2024/01/04 12:01:23;;;;;;;1.60;1.47;;;1.80;1.00;;;;;;5041704;28;20932;-54
2024/01/04 12:03:51;;;;;;;1.80;1.70;;;1.80;99.90;;;;;;5047755;28;20191;-54
2024/01/04 12:06:20;;;;;;;1.67;1.30;;;1.90;99.90;;;;;;5036766;28;20933;-54
2024/01/04 12:08:45;;;;;;;8.67;2.00;;;1.90;1.00;;;;;;5034122;28;20560;-55
2024/01/04 12:11:11;;;;;;;5.10;1.80;;;1.90;39.90;;;;;;5033896;28;20433;-54
2024/01/04 12:13:36;;;;;;;3.23;1.63;;;1.80;1.00;;;;;;5033973;28;20184;-56
2024/01/04 12:16:05;;;;;;;2.43;1.63;;;1.70;99.90;;;;;;5034323;28;20206;-54
2024/01/04 12:18:32;;;;;;;2.20;1.43;;;1.70;1.00;;;;;;5034026;28;20306;-53
2024/01/04 12:20:59;;;;;;;2.40;1.70;;;1.70;1.00;;;;;;5032852;28;20831;-54
2024/01/04 12:23:25;;;;;;;7.00;1.70;;;1.60;99.90;;;;;;5034065;28;20414;-54
2024/01/04 12:25:51;;;;;;;4.40;1.50;;;1.70;99.90;;;;;;5033655;28;21045;-54
2024/01/04 12:28:17;;;;;;;2.67;1.70;;;1.80;99.90;;;;;;5033813;28;20182;-54
2024/01/04 12:30:43;;;;;;;3.93;1.67;;;1.80;1.00;;;;;;5051696;28;20195;-54
2024/01/04 12:33:09;;;;;;;2.17;1.33;;;1.90;99.90;;;;;;5032839;28;20501;-54
2024/01/04 12:35:35;;;;;;;2.17;1.93;;;1.90;99.90;;;;;;5032011;28;20202;-54
2024/01/04 12:38:05;;;;;;;1.53;1.33;;;2.00;1.00;;;;;;5032154;28;20219;-54
2024/01/04 12:40:45;;;;;;;3.70;2.07;;;2.10;1.00;;;;;;5032936;28;20418;-53
2024/01/04 12:43:15;;;;;;;1.63;1.47;;;2.20;1.00;;;;;;5033768;28;20425;-54
2024/01/04 12:45:41;;;;;;;8.63;1.73;;;2.20;99.90;;;;;;5032913;28;20517;-54
2024/01/04 12:48:07;;;;;;;2.97;1.50;;;2.20;99.90;;;;;;5033242;28;20468;-55
2024/01/04 12:50:34;;;;;;;3.53;1.60;;;2.20;26.60;;;;;;5033871;28;20188;-54
2024/01/04 12:53:01;;;;;;;2.83;1.70;;;2.30;99.90;;;;;;5031423;28;20534;-54
2024/01/04 12:55:26;;;;;;;2.80;1.60;;;2.30;99.90;;;;;;5032580;28;20445;-54
2024/01/04 12:57:52;;;;;;;6.73;1.73;;;2.30;99.90;;;;;;5032872;28;20470;-55
2024/01/04 13:00:18;;;;;;;3.23;1.67;;;2.20;1.00;;;;;;5030273;28;20184;-55